Terminal Aerodrome Forecast
Issued by NWS Green Bay, WI

Home | Current Version | Previous Version | Graphics & Text | Print | Product List | Glossary On
Versions: 1 2 3 4 5 6 7 8 9 10 11 12 13 14 15 16 17 18 19 20 21 22 23 24 25 26 27 28 29 30
000
FTUS43 KGRB 232320
TAFGRB
TAF
KGRB 232320Z 2400/2424 20008KT P6SM BKN100
     FM240200 18004KT P6SM BKN090
     FM241500 17010G17KT P6SM BKN070
     FM242200 12011KT P6SM -SHRA SCT030 OVC050=

USA.gov is the U.S. government's official web portal to all federal, state and local government web resources and services.